Time;durP1;ratioP1;P1;durP2;ratioP2;P2;SDS_P1;SDS_P2;PMS_P1;PMS_P2;Temp;Humidity;BMP_temperature;BMP_pressure;BME280_temperature;BME280_humidity;BME280_pressure;Samples;Min_cycle;Max_cycle;Signal;HPM_P1;HPM_P2
2021/01/07 00:02:21;;;;;;;29.50;13.85;;;3.70;99.90;;;;;;5011020;28;20387;-82
2021/01/07 00:04:47;;;;;;;24.95;12.52;;;3.70;99.90;;;;;;5032277;28;20029;-81
2021/01/07 00:07:13;;;;;;;26.50;13.70;;;3.70;99.90;;;;;;5050253;28;20464;-81
2021/01/07 00:09:39;;;;;;;28.35;13.68;;;3.70;99.90;;;;;;5031428;28;20084;-82
2021/01/07 00:12:05;;;;;;;27.65;14.10;;;3.70;99.90;;;;;;5012483;28;20042;-80
2021/01/07 00:14:31;;;;;;;27.58;14.32;;;3.60;99.90;;;;;;5031928;28;20042;-84
2021/01/07 00:16:57;;;;;;;25.45;13.23;;;3.60;99.90;;;;;;5032638;28;20781;-79
2021/01/07 00:19:22;;;;;;;28.98;14.35;;;3.50;99.90;;;;;;5031652;28;20128;-84
2021/01/07 00:21:48;;;;;;;25.15;13.25;;;3.60;99.90;;;;;;5028935;28;20069;-77
2021/01/07 00:24:14;;;;;;;26.75;13.02;;;3.60;99.90;;;;;;5009991;28;20049;-80
2021/01/07 00:26:40;;;;;;;28.08;14.85;;;;;;;;;;5030708;28;20037;-80
2021/01/07 00:29:07;;;;;;;26.50;13.82;;;3.60;99.90;;;;;;5031576;28;20048;-82
2021/01/07 00:31:33;;;;;;;26.35;13.85;;;3.70;99.90;;;;;;5013764;28;20046;-82
2021/01/07 00:33:58;;;;;;;26.55;14.07;;;3.60;99.90;;;;;;5014840;28;20192;-78
2021/01/07 00:36:24;;;;;;;27.05;13.80;;;3.60;99.90;;;;;;5033938;28;20120;-81
2021/01/07 00:38:52;;;;;;;28.73;14.38;;;3.60;99.90;;;;;;5033644;28;20069;-81
2021/01/07 00:41:19;;;;;;;25.42;13.45;;;3.60;99.90;;;;;;5030167;28;20075;-79
2021/01/07 00:43:47;;;;;;;27.70;14.23;;;3.90;99.90;;;;;;5029340;28;20041;-77
2021/01/07 00:46:13;;;;;;;27.35;13.95;;;3.60;99.90;;;;;;5028659;28;20026;-80
2021/01/07 00:48:39;;;;;;;28.52;14.68;;;3.30;99.90;;;;;;5026464;28;20038;-79
2021/01/07 00:51:06;;;;;;;27.75;14.90;;;3.50;99.90;;;;;;5033638;28;20094;-78
2021/01/07 00:53:32;;;;;;;28.00;14.13;;;3.50;99.90;;;;;;5019225;28;20037;-81
2021/01/07 00:55:58;;;;;;;28.48;14.48;;;3.50;99.90;;;;;;5018618;28;20537;-84
2021/01/07 00:58:24;;;;;;;30.30;15.38;;;3.40;99.90;;;;;;5013035;28;20135;-81
2021/01/07 01:00:50;;;;;;;28.65;14.63;;;3.30;99.90;;;;;;5029353;28;20042;-79
2021/01/07 01:03:16;;;;;;;30.80;14.63;;;3.30;99.90;;;;;;5015909;28;20045;-80
2021/01/07 01:05:45;;;;;;;32.72;16.13;;;3.40;99.90;;;;;;5019121;28;20045;-82
2021/01/07 01:08:11;;;;;;;29.55;14.27;;;3.40;99.90;;;;;;5034696;28;20041;-83
2021/01/07 01:10:37;;;;;;;33.00;15.68;;;3.40;99.90;;;;;;5027549;28;21882;-80
2021/01/07 01:13:02;;;;;;;31.85;15.82;;;3.40;99.90;;;;;;5013409;28;20050;-80
2021/01/07 01:15:28;;;;;;;30.55;14.43;;;3.40;99.90;;;;;;5031559;28;20041;-83
2021/01/07 01:17:54;;;;;;;28.20;14.10;;;3.40;99.90;;;;;;5031236;28;20065;-82
2021/01/07 01:20:20;;;;;;;27.58;13.88;;;3.40;99.90;;;;;;5016225;28;20132;-82
2021/01/07 01:22:45;;;;;;;31.40;14.18;;;3.40;99.90;;;;;;5019125;28;20080;-82
2021/01/07 01:25:12;;;;;;;29.98;14.55;;;3.40;99.90;;;;;;5034019;28;20056;-82
2021/01/07 01:27:42;;;;;;;28.90;14.27;;;3.40;99.90;;;;;;5035181;28;20033;-79
2021/01/07 01:30:09;;;;;;;31.35;14.73;;;3.40;99.90;;;;;;5028594;28;20037;-80
2021/01/07 01:32:40;;;;;;;30.13;14.93;;;3.50;99.90;;;;;;5035072;28;20041;-80
2021/01/07 01:35:07;;;;;;;30.15;14.68;;;3.50;99.90;;;;;;5029966;28;20042;-82
2021/01/07 01:37:41;;;;;;;25.92;13.48;;;3.40;99.90;;;;;;5036016;28;20026;-79
2021/01/07 01:40:09;;;;;;;29.17;13.90;;;3.40;99.90;;;;;;5047689;28;20069;-80
2021/01/07 01:42:34;;;;;;;29.17;13.65;;;3.40;99.90;;;;;;5032882;28;20089;-82
2021/01/07 01:45:00;;;;;;;30.58;15.38;;;3.40;99.90;;;;;;5033053;28;20075;-83
2021/01/07 01:47:26;;;;;;;28.70;14.57;;;3.40;99.90;;;;;;5016715;28;20064;-80
2021/01/07 01:49:54;;;;;;;30.48;15.15;;;3.40;99.90;;;;;;5031112;28;20041;-79
2021/01/07 01:52:21;;;;;;;29.17;13.88;;;3.30;99.90;;;;;;5033986;28;20114;-79
2021/01/07 01:54:47;;;;;;;30.67;14.50;;;3.30;99.90;;;;;;5034191;28;20041;-80
2021/01/07 01:57:14;;;;;;;31.52;15.15;;;3.30;99.90;;;;;;5033126;28;20063;-82
2021/01/07 01:59:40;;;;;;;30.45;15.07;;;3.30;99.90;;;;;;5028763;28;20034;-79
2021/01/07 02:02:14;;;;;;;31.42;14.82;;;3.30;99.90;;;;;;5035130;28;20042;-80
2021/01/07 02:04:40;;;;;;;29.15;13.73;;;3.30;99.90;;;;;;5047529;28;20064;-80
2021/01/07 02:07:16;;;;;;;28.40;14.55;;;3.30;99.90;;;;;;5036898;28;20045;-81
2021/01/07 02:09:43;;;;;;;28.08;13.65;;;;;;;;;;5031904;28;20037;-76
2021/01/07 02:12:10;;;;;;;29.52;14.30;;;3.20;99.90;;;;;;5033332;28;20045;-83
2021/01/07 02:14:44;;;;;;;28.17;13.73;;;3.00;99.90;;;;;;5049399;28;20066;-80
2021/01/07 02:17:10;;;;;;;30.38;15.13;;;3.20;99.90;;;;;;5029953;28;20049;-82
2021/01/07 02:19:36;;;;;;;33.53;16.50;;;3.20;99.90;;;;;;5030424;28;20030;-80
2021/01/07 02:22:02;;;;;;;33.70;15.38;;;5.10;99.90;;;;;;5036195;28;20013;-81
2021/01/07 02:24:30;;;;;;;29.80;15.30;;;3.20;99.90;;;;;;5033762;28;20060;-84
2021/01/07 02:27:09;;;;;;;31.40;14.65;;;3.20;99.90;;;;;;5026517;28;20044;-80
2021/01/07 02:29:38;;;;;;;30.33;13.82;;;3.20;99.90;;;;;;5032167;28;20102;-80
2021/01/07 02:32:05;;;;;;;32.95;15.07;;;3.10;99.90;;;;;;5032228;28;20493;-76
2021/01/07 02:34:31;;;;;;;28.00;13.93;;;;;;;;;;5034410;28;20080;-79
2021/01/07 02:36:57;;;;;;;28.30;13.30;;;3.30;99.90;;;;;;5033133;28;20076;-79
2021/01/07 02:39:22;;;;;;;29.83;14.82;;;3.30;99.90;;;;;;5034110;28;20092;-80
2021/01/07 02:41:52;;;;;;;28.73;14.45;;;3.30;99.90;;;;;;5031403;28;20418;-82
2021/01/07 02:44:18;;;;;;;33.17;15.20;;;3.30;99.90;;;;;;5030539;28;20380;-79
2021/01/07 02:46:44;;;;;;;31.70;15.48;;;3.30;99.90;;;;;;5027350;28;20045;-78
2021/01/07 02:49:10;;;;;;;31.13;15.15;;;3.30;99.90;;;;;;5011620;28;20046;-80
2021/01/07 02:51:36;;;;;;;33.50;15.93;;;3.20;99.90;;;;;;5030996;28;20072;-80
2021/01/07 02:54:02;;;;;;;30.45;15.30;;;3.30;99.90;;;;;;5033431;28;20060;-79
2021/01/07 02:56:30;;;;;;;30.90;15.40;;;3.20;99.90;;;;;;5013022;28;20045;-77
2021/01/07 02:58:55;;;;;;;30.85;14.82;;;3.20;99.90;;;;;;5031958;28;20047;-78
2021/01/07 03:01:22;;;;;;;32.97;15.20;;;;;;;;;;5029815;28;20120;-79
2021/01/07 03:03:47;;;;;;;36.53;15.68;;;3.20;99.90;;;;;;5010087;28;20960;-80
2021/01/07 03:06:13;;;;;;;33.50;15.50;;;3.20;99.90;;;;;;5031289;28;20071;-82
2021/01/07 03:08:39;;;;;;;34.97;16.83;;;3.30;99.90;;;;;;5017505;28;20072;-80
2021/01/07 03:11:04;;;;;;;31.88;15.32;;;3.20;99.90;;;;;;5031057;28;20052;-79
2021/01/07 03:13:30;;;;;;;32.13;15.73;;;3.80;99.90;;;;;;5033375;28;20037;-80
2021/01/07 03:15:55;;;;;;;32.35;15.18;;;3.20;99.90;;;;;;5030710;28;20041;-76
2021/01/07 03:18:21;;;;;;;31.58;15.13;;;3.20;99.90;;;;;;5008641;28;20475;-77
2021/01/07 03:20:47;;;;;;;32.40;15.60;;;3.20;99.90;;;;;;5000474;28;20053;-82
2021/01/07 03:23:13;;;;;;;30.73;15.23;;;3.10;99.90;;;;;;5031113;28;20533;-83
2021/01/07 03:25:39;;;;;;;33.15;16.17;;;3.20;99.90;;;;;;5030895;28;20053;-83
2021/01/07 03:28:04;;;;;;;31.30;15.95;;;3.10;99.90;;;;;;5033122;28;20052;-79
2021/01/07 03:30:30;;;;;;;31.88;16.05;;;3.10;99.90;;;;;;5016573;28;20045;-80
2021/01/07 03:32:55;;;;;;;29.00;14.32;;;3.10;99.90;;;;;;5034216;28;20045;-81
2021/01/07 03:35:21;;;;;;;32.03;15.85;;;3.20;99.90;;;;;;5044901;28;20061;-82
2021/01/07 03:37:46;;;;;;;29.92;14.93;;;3.10;99.90;;;;;;5048849;28;20045;-80
2021/01/07 03:40:13;;;;;;;30.55;15.23;;;3.20;99.90;;;;;;5031165;28;20038;-80
2021/01/07 03:42:38;;;;;;;33.17;15.68;;;3.20;99.90;;;;;;5035688;28;20034;-80
2021/01/07 03:45:11;;;;;;;33.22;15.45;;;3.50;99.90;;;;;;5033167;28;20037;-82
2021/01/07 03:47:37;;;;;;;30.55;15.00;;;3.10;99.90;;;;;;5012101;28;20049;-82
2021/01/07 03:50:04;;;;;;;31.90;15.77;;;3.20;99.90;;;;;;5012151;28;20112;-83
2021/01/07 03:52:30;;;;;;;31.80;14.68;;;3.20;99.90;;;;;;5031468;28;20434;-80
2021/01/07 03:54:55;;;;;;;33.17;16.02;;;3.30;99.90;;;;;;5030859;28;20037;-81
2021/01/07 03:57:21;;;;;;;32.00;15.57;;;3.20;99.90;;;;;;5033695;28;20045;-80
2021/01/07 03:59:47;;;;;;;32.15;16.05;;;3.20;99.90;;;;;;5033281;28;20764;-81
2021/01/07 04:02:13;;;;;;;29.88;14.40;;;;;;;;;;5028074;28;20065;-83
2021/01/07 04:04:39;;;;;;;32.72;15.88;;;3.20;99.90;;;;;;5031670;28;20041;-80
2021/01/07 04:07:05;;;;;;;33.53;15.38;;;3.20;99.90;;;;;;5035809;28;20049;-80
2021/01/07 04:09:30;;;;;;;30.58;15.02;;;3.20;99.90;;;;;;5042223;28;20496;-77
2021/01/07 04:11:56;;;;;;;32.97;15.45;;;4.70;99.90;;;;;;5030993;28;20053;-82
2021/01/07 04:14:23;;;;;;;33.85;15.73;;;3.10;99.90;;;;;;5037509;28;20111;-80
2021/01/07 04:16:48;;;;;;;34.40;16.13;;;3.10;99.90;;;;;;5031259;28;20045;-81
2021/01/07 04:19:14;;;;;;;33.15;16.08;;;3.10;99.90;;;;;;5027603;28;20056;-80
2021/01/07 04:21:45;;;;;;;32.03;14.90;;;3.10;99.90;;;;;;5030899;28;20045;-81
2021/01/07 04:24:16;;;;;;;33.25;15.82;;;3.10;99.90;;;;;;5032269;28;20049;-81
2021/01/07 04:26:45;;;;;;;33.35;15.60;;;3.10;99.90;;;;;;5031825;28;20042;-79
2021/01/07 04:29:11;;;;;;;30.35;14.95;;;3.10;99.90;;;;;;5034731;28;20041;-79
2021/01/07 04:31:38;;;;;;;31.65;14.95;;;3.10;99.90;;;;;;5027742;28;20034;-82
2021/01/07 04:34:05;;;;;;;35.38;17.38;;;3.10;99.90;;;;;;5033252;28;20032;-82
2021/01/07 04:36:30;;;;;;;32.15;15.05;;;3.10;99.90;;;;;;5032180;28;20057;-79
2021/01/07 04:38:56;;;;;;;30.42;15.05;;;3.10;99.90;;;;;;5037867;28;20064;-79
2021/01/07 04:41:22;;;;;;;32.47;15.98;;;3.00;99.90;;;;;;5034760;28;20029;-81
2021/01/07 04:43:58;;;;;;;33.13;15.07;;;2.90;99.90;;;;;;5031604;28;20076;-81
2021/01/07 04:46:25;;;;;;;30.10;13.45;;;2.80;99.90;;;;;;5031458;28;20394;-83
2021/01/07 04:48:52;;;;;;;30.25;15.43;;;2.80;99.90;;;;;;5048434;28;20108;-81
2021/01/07 04:51:18;;;;;;;31.00;15.10;;;2.80;99.90;;;;;;5032026;28;20041;-80
2021/01/07 04:53:44;;;;;;;29.77;14.57;;;2.70;99.90;;;;;;5035616;28;20033;-80
2021/01/07 04:56:11;;;;;;;33.38;15.70;;;2.90;99.90;;;;;;5033357;28;20071;-83
2021/01/07 04:58:37;;;;;;;32.97;16.00;;;2.70;99.90;;;;;;5036073;28;20037;-82
2021/01/07 05:01:03;;;;;;;31.15;14.98;;;2.70;99.90;;;;;;5035077;28;20467;-80
2021/01/07 05:03:33;;;;;;;32.08;14.80;;;2.70;99.90;;;;;;5036544;28;20079;-80
2021/01/07 05:05:59;;;;;;;32.08;15.18;;;2.70;99.90;;;;;;5031783;28;20130;-82
2021/01/07 05:08:25;;;;;;;32.63;15.00;;;2.70;99.90;;;;;;5019466;28;20033;-79
2021/01/07 05:10:52;;;;;;;30.40;14.25;;;2.70;99.90;;;;;;5033791;28;20045;-81
2021/01/07 05:13:18;;;;;;;33.30;15.30;;;2.70;99.90;;;;;;5037738;28;20037;-80
2021/01/07 05:15:45;;;;;;;28.58;13.70;;;2.70;99.90;;;;;;5036613;28;20056;-78
2021/01/07 05:18:10;;;;;;;31.70;13.60;;;2.70;99.90;;;;;;5035688;28;20514;-78
2021/01/07 05:20:37;;;;;;;32.15;14.45;;;2.70;99.90;;;;;;5034822;28;20060;-79
2021/01/07 05:23:03;;;;;;;34.08;16.33;;;2.70;99.90;;;;;;5037740;28;20498;-85
2021/01/07 05:25:29;;;;;;;32.25;14.60;;;2.60;99.90;;;;;;5032425;28;20030;-82
2021/01/07 05:28:05;;;;;;;31.90;14.48;;;2.60;99.90;;;;;;5014662;28;20044;-80
2021/01/07 05:30:33;;;;;;;31.95;15.23;;;2.50;99.90;;;;;;5030535;28;20060;-79
2021/01/07 05:33:07;;;;;;;32.25;15.30;;;2.50;99.90;;;;;;5016660;28;20045;-79
2021/01/07 05:35:34;;;;;;;32.85;14.57;;;2.50;99.90;;;;;;5034432;28;20045;-79
2021/01/07 05:38:02;;;;;;;36.13;15.05;;;2.40;99.90;;;;;;5032824;28;20116;-79
2021/01/07 05:40:28;;;;;;;31.17;14.40;;;2.40;99.90;;;;;;5052443;28;20131;-82
2021/01/07 05:42:59;;;;;;;31.77;14.70;;;2.40;99.90;;;;;;5034078;28;20470;-84
2021/01/07 05:45:34;;;;;;;32.85;14.80;;;2.40;99.90;;;;;;5032909;28;20041;-78
2021/01/07 05:48:02;;;;;;;30.40;15.07;;;2.40;99.90;;;;;;5049515;28;20048;-80
2021/01/07 05:50:33;;;;;;;35.40;15.45;;;2.40;99.90;;;;;;5035565;28;20332;-79
2021/01/07 05:52:59;;;;;;;34.15;16.05;;;2.40;99.90;;;;;;5035842;28;20037;-80
2021/01/07 05:55:25;;;;;;;30.83;15.45;;;2.30;99.90;;;;;;5035036;28;20033;-79
2021/01/07 05:58:04;;;;;;;34.42;15.02;;;2.30;99.90;;;;;;5033900;28;20058;-80
2021/01/07 06:00:33;;;;;;;29.52;13.95;;;2.30;99.90;;;;;;5034024;28;20025;-79
2021/01/07 06:03:00;;;;;;;30.90;15.07;;;2.40;99.90;;;;;;5027929;28;20057;-81
2021/01/07 06:05:26;;;;;;;33.13;14.68;;;2.30;99.90;;;;;;5032817;28;20111;-81
2021/01/07 06:07:54;;;;;;;31.77;14.75;;;2.40;99.90;;;;;;5039653;28;20057;-83
2021/01/07 06:10:21;;;;;;;32.80;14.43;;;2.40;99.90;;;;;;5037492;28;20547;-79
2021/01/07 06:12:46;;;;;;;31.42;15.25;;;2.40;99.90;;;;;;5034007;28;20037;-79
2021/01/07 06:15:15;;;;;;;31.45;14.10;;;2.40;99.90;;;;;;5034220;28;20082;-81
2021/01/07 06:17:43;;;;;;;33.63;15.00;;;2.40;99.90;;;;;;5030035;28;20037;-78
2021/01/07 06:20:15;;;;;;;32.35;15.23;;;2.40;99.90;;;;;;5029851;28;20124;-80
2021/01/07 06:22:49;;;;;;;32.80;15.00;;;2.40;99.90;;;;;;5033826;28;20026;-82
2021/01/07 06:25:17;;;;;;;30.65;13.75;;;2.50;99.90;;;;;;5035184;28;20032;-79
2021/01/07 06:27:44;;;;;;;30.90;14.98;;;2.50;99.90;;;;;;5033681;28;20530;-80
2021/01/07 06:30:10;;;;;;;31.25;14.68;;;2.50;99.90;;;;;;5034098;28;20088;-78
2021/01/07 06:32:36;;;;;;;32.55;14.85;;;;;;;;;;5031745;28;20084;-80
2021/01/07 06:35:11;;;;;;;30.00;14.45;;;2.40;99.90;;;;;;5027305;28;20125;-77
2021/01/07 06:37:51;;;;;;;30.42;14.13;;;2.30;99.90;;;;;;5023126;28;20045;-80
2021/01/07 06:40:18;;;;;;;31.50;14.98;;;2.30;99.90;;;;;;5026498;28;20586;-77
2021/01/07 06:42:53;;;;;;;33.15;14.70;;;2.30;99.90;;;;;;5030476;28;20034;-79
2021/01/07 06:45:24;;;;;;;29.75;13.75;;;2.40;99.90;;;;;;5032888;28;20029;-79
2021/01/07 06:47:54;;;;;;;31.67;15.07;;;2.40;99.90;;;;;;5028984;28;20503;-81
2021/01/07 06:50:21;;;;;;;34.42;15.75;;;2.40;99.90;;;;;;5026020;28;20446;-79
2021/01/07 06:52:48;;;;;;;32.13;14.93;;;2.40;99.90;;;;;;5047084;28;20036;-79
2021/01/07 06:55:15;;;;;;;30.60;14.05;;;2.40;99.90;;;;;;5027281;28;20189;-79
2021/01/07 06:57:48;;;;;;;33.22;15.82;;;2.40;99.90;;;;;;5037899;28;20244;-78
2021/01/07 07:00:18;;;;;;;34.10;15.27;;;2.40;99.90;;;;;;5021144;28;20091;-76
2021/01/07 07:03:21;;;;;;;30.85;14.98;;;2.40;99.90;;;;;;5025412;28;20030;-79
2021/01/07 07:05:54;;;;;;;32.17;15.25;;;2.40;99.90;;;;;;5029425;28;20037;-78
2021/01/07 07:08:34;;;;;;;29.67;13.77;;;2.40;99.90;;;;;;5032458;28;20590;-82
2021/01/07 07:11:06;;;;;;;33.15;15.00;;;2.40;99.90;;;;;;5027241;28;20379;-81
2021/01/07 07:13:40;;;;;;;31.20;14.50;;;2.40;99.90;;;;;;5033115;28;20044;-80
2021/01/07 07:16:09;;;;;;;42.15;18.55;;;2.40;99.90;;;;;;5030313;28;20037;-80
2021/01/07 07:18:36;;;;;;;28.20;13.55;;;2.50;99.90;;;;;;5030600;28;20037;-79
2021/01/07 07:21:28;;;;;;;31.45;14.32;;;2.40;99.90;;;;;;5028959;28;20045;-78
2021/01/07 07:23:57;;;;;;;27.60;13.43;;;2.40;99.90;;;;;;5026789;28;20613;-80
2021/01/07 07:26:39;;;;;;;29.40;14.13;;;2.40;99.90;;;;;;5029467;28;20037;-79
2021/01/07 07:29:13;;;;;;;29.95;14.50;;;2.40;99.90;;;;;;5022546;28;20040;-81
2021/01/07 07:31:44;;;;;;;28.48;13.85;;;2.30;99.90;;;;;;5024317;28;20031;-87
2021/01/07 07:34:12;;;;;;;32.33;13.63;;;2.30;99.90;;;;;;5028223;28;20052;-80
2021/01/07 07:36:38;;;;;;;29.27;14.02;;;2.30;99.90;;;;;;5024925;28;20422;-79
2021/01/07 07:39:06;;;;;;;30.60;14.73;;;2.30;99.90;;;;;;5032276;28;20017;-84
2021/01/07 07:41:41;;;;;;;31.77;15.07;;;2.60;99.90;;;;;;5031086;28;20033;-79
2021/01/07 07:44:07;;;;;;;32.05;14.27;;;2.20;99.90;;;;;;5025488;28;20495;-81
2021/01/07 07:46:34;;;;;;;32.67;15.27;;;2.10;99.90;;;;;;5031809;28;20097;-79
2021/01/07 07:49:02;;;;;;;31.52;14.73;;;2.20;99.90;;;;;;5032900;28;20515;-81
2021/01/07 07:51:28;;;;;;;33.08;15.20;;;2.20;99.90;;;;;;5033400;28;20060;-81
2021/01/07 07:54:07;;;;;;;33.50;16.08;;;2.20;99.90;;;;;;5032027;28;20038;-81
2021/01/07 07:56:32;;;;;;;31.63;14.40;;;2.20;99.90;;;;;;5036292;28;20519;-80
2021/01/07 07:59:04;;;;;;;34.88;15.55;;;2.20;99.90;;;;;;5035230;28;20076;-81
2021/01/07 08:01:47;;;;;;;32.97;14.52;;;4.20;99.90;;;;;;5029150;28;20437;-81
2021/01/07 08:04:12;;;;;;;29.08;14.48;;;2.30;99.90;;;;;;5035892;28;20067;-82
2021/01/07 08:06:38;;;;;;;32.13;14.68;;;2.30;99.90;;;;;;5029107;28;20049;-79
2021/01/07 08:09:09;;;;;;;31.27;15.23;;;2.30;99.90;;;;;;5033563;28;20097;-81
2021/01/07 08:11:56;;;;;;;32.95;15.07;;;2.30;99.90;;;;;;5032368;28;20061;-81
2021/01/07 08:14:24;;;;;;;36.05;16.05;;;2.30;99.90;;;;;;5035553;28;20029;-80
2021/01/07 08:16:57;;;;;;;32.60;15.43;;;2.30;99.90;;;;;;5033235;28;20033;-80
2021/01/07 08:19:30;;;;;;;32.70;15.35;;;2.30;99.90;;;;;;5033225;28;20042;-82
2021/01/07 08:21:55;;;;;;;32.78;14.98;;;2.40;99.90;;;;;;5039048;28;20037;-81
2021/01/07 08:24:22;;;;;;;30.60;14.63;;;2.50;99.90;;;;;;5033145;28;20124;-80
2021/01/07 08:27:16;;;;;;;31.73;14.63;;;2.50;99.90;;;;;;5046582;28;20045;-82
2021/01/07 08:29:45;;;;;;;31.33;14.93;;;2.50;99.90;;;;;;5032750;28;20034;-82
2021/01/07 08:32:12;;;;;;;29.35;13.80;;;2.50;99.90;;;;;;5032812;28;20495;-80
2021/01/07 08:34:38;;;;;;;32.70;13.85;;;3.90;99.90;;;;;;5045674;28;20091;-80
2021/01/07 08:37:17;;;;;;;31.60;14.15;;;2.80;99.90;;;;;;5040424;28;20049;-84
2021/01/07 08:39:43;;;;;;;27.02;13.07;;;2.70;99.90;;;;;;5029146;28;20119;-81
2021/01/07 08:42:09;;;;;;;31.75;14.25;;;2.70;99.90;;;;;;5026709;28;20072;-81
2021/01/07 08:44:36;;;;;;;30.58;14.48;;;2.60;99.90;;;;;;5028629;28;20036;-84
2021/01/07 08:47:18;;;;;;;30.42;13.63;;;2.70;99.90;;;;;;5025171;28;20128;-82
2021/01/07 08:49:44;;;;;;;27.90;13.73;;;2.70;99.90;;;;;;5033515;28;20040;-80
2021/01/07 08:52:10;;;;;;;29.13;13.60;;;;;;;;;;5029375;28;20046;-80
2021/01/07 08:54:36;;;;;;;29.25;15.02;;;;;;;;;;5027483;28;20045;-82
2021/01/07 08:57:10;;;;;;;30.98;13.90;;;2.60;99.90;;;;;;5033243;28;20152;-80
2021/01/07 08:59:37;;;;;;;29.42;14.07;;;2.60;99.90;;;;;;5032728;28;20582;-81
2021/01/07 09:02:04;;;;;;;31.27;14.02;;;2.50;99.90;;;;;;5032133;28;20122;-80
2021/01/07 09:04:38;;;;;;;30.05;13.75;;;2.60;99.90;;;;;;5032479;28;20037;-81
2021/01/07 09:07:19;;;;;;;34.20;16.25;;;2.60;99.90;;;;;;5036703;28;20033;-82
2021/01/07 09:09:46;;;;;;;31.08;14.27;;;2.70;99.90;;;;;;5045165;28;20491;-80
2021/01/07 09:12:17;;;;;;;33.63;15.85;;;2.80;99.90;;;;;;5028626;28;20171;-82
2021/01/07 09:14:43;;;;;;;;;;;2.80;99.90;;;;;;5031503;28;20068;-83
2021/01/07 09:17:09;;;;;;;30.92;14.38;;;2.70;99.90;;;;;;5043279;28;20359;-80
2021/01/07 09:19:34;;;;;;;33.75;15.00;;;2.80;99.90;;;;;;5026851;28;20040;-79
2021/01/07 09:22:03;;;;;;;32.33;14.38;;;2.80;99.90;;;;;;4998445;28;20511;-79
2021/01/07 09:24:37;;;;;;;31.02;13.65;;;2.80;99.90;;;;;;5026976;28;20061;-81
2021/01/07 09:27:14;;;;;;;30.25;14.30;;;2.70;99.90;;;;;;5027879;28;20041;-84
2021/01/07 09:29:40;;;;;;;32.10;14.57;;;2.70;99.90;;;;;;5024780;28;20029;-79
2021/01/07 09:32:08;;;;;;;29.73;15.15;;;2.80;99.90;;;;;;5026819;28;20112;-82
2021/01/07 09:34:34;;;;;;;31.02;14.13;;;;;;;;;;5023987;28;20069;-80
2021/01/07 09:37:05;;;;;;;34.90;16.10;;;2.80;99.90;;;;;;5022491;28;20044;-79
2021/01/07 09:39:31;;;;;;;34.08;14.02;;;2.90;99.90;;;;;;5017488;28;20701;-80
2021/01/07 09:42:00;;;;;;;31.73;14.90;;;3.00;99.90;;;;;;5024143;28;20451;-80
2021/01/07 09:44:25;;;;;;;33.63;15.20;;;3.00;99.90;;;;;;5023052;28;20157;-78
2021/01/07 09:46:53;;;;;;;30.63;14.23;;;3.10;99.90;;;;;;5022137;28;20472;-82
2021/01/07 09:49:19;;;;;;;30.67;13.13;;;;;;;;;;5009309;28;568584;-80
2021/01/07 09:51:46;;;;;;;29.77;14.00;;;;;;;;;;5026916;28;20109;-81
2021/01/07 09:54:11;;;;;;;27.17;13.52;;;3.20;99.90;;;;;;5026916;28;20083;-80
2021/01/07 09:56:38;;;;;;;29.67;14.18;;;;;;;;;;5031015;28;20034;-81
2021/01/07 09:59:03;;;;;;;30.48;13.98;;;3.20;99.90;;;;;;5031187;28;20042;-80
2021/01/07 10:01:29;;;;;;;27.48;13.10;;;;;;;;;;5030109;28;20525;-78
2021/01/07 10:03:56;;;;;;;28.40;13.50;;;3.20;99.90;;;;;;5032138;28;20415;-81
2021/01/07 10:06:22;;;;;;;26.85;12.90;;;;;;;;;;5028556;28;20033;-80
2021/01/07 10:08:47;;;;;;;27.23;13.55;;;3.30;99.90;;;;;;5024442;28;20554;-82
2021/01/07 10:11:13;;;;;;;30.13;14.68;;;3.40;99.90;;;;;;5029143;28;20662;-81
2021/01/07 10:13:39;;;;;;;26.65;12.30;;;3.30;99.90;;;;;;5031614;28;20025;-79
2021/01/07 10:16:10;;;;;;;25.50;13.48;;;3.30;99.90;;;;;;5032297;28;20052;-80
2021/01/07 10:18:35;;;;;;;27.45;12.38;;;3.40;99.90;;;;;;5034400;28;20041;-81
2021/01/07 10:21:01;;;;;;;29.77;13.48;;;3.40;99.90;;;;;;5029047;28;20149;-79
2021/01/07 10:23:28;;;;;;;27.52;13.52;;;3.40;99.90;;;;;;5025619;28;20069;-79
2021/01/07 10:25:56;;;;;;;27.70;12.32;;;3.40;99.90;;;;;;5030403;28;20036;-79
2021/01/07 10:28:26;;;;;;;26.38;12.00;;;3.60;99.90;;;;;;5027942;28;20089;-80
2021/01/07 10:30:52;;;;;;;28.55;13.50;;;;;;;;;;5029395;28;20067;-83
2021/01/07 10:33:18;;;;;;;26.30;12.57;;;3.70;99.90;;;;;;5023927;28;20030;-82
2021/01/07 10:35:44;;;;;;;25.60;12.88;;;3.70;99.90;;;;;;5026081;28;20038;-81
2021/01/07 10:38:11;;;;;;;23.15;11.45;;;3.70;99.90;;;;;;5023645;28;20095;-83
2021/01/07 10:40:44;;;;;;;32.72;13.43;;;3.80;99.90;;;;;;5024737;28;20118;-81
2021/01/07 10:43:12;;;;;;;27.25;12.85;;;3.80;99.90;;;;;;5032927;28;20021;-80
2021/01/07 10:45:39;;;;;;;27.98;13.65;;;3.80;99.90;;;;;;5032515;28;20075;-81
2021/01/07 10:48:10;;;;;;;27.17;13.32;;;3.80;99.90;;;;;;5043674;28;20057;-81
2021/01/07 10:50:36;;;;;;;27.10;12.88;;;3.90;99.60;;;;;;5022333;28;20514;-79
2021/01/07 10:53:08;;;;;;;24.58;12.07;;;4.00;99.80;;;;;;5046996;28;20048;-82
2021/01/07 10:55:41;;;;;;;23.77;11.90;;;4.10;99.30;;;;;;5028523;28;20045;-82
2021/01/07 10:58:33;;;;;;;27.45;12.80;;;4.10;99.10;;;;;;5035406;28;20041;-81
2021/01/07 11:01:43;;;;;;;27.83;13.10;;;4.10;99.50;;;;;;5034566;28;20382;-81
2021/01/07 11:04:13;;;;;;;24.77;12.68;;;4.10;99.20;;;;;;4963758;28;20854;-80
2021/01/07 11:06:50;;;;;;;32.08;14.15;;;4.00;99.70;;;;;;4960756;28;20105;-83
2021/01/07 11:09:21;;;;;;;28.33;14.15;;;3.90;99.90;;;;;;5004439;28;20064;-79
2021/01/07 11:11:50;;;;;;;25.88;12.32;;;4.00;99.90;;;;;;5029307;28;20041;-82
2021/01/07 11:14:24;;;;;;;26.70;13.18;;;4.70;99.80;;;;;;5029320;28;20071;-80
2021/01/07 11:16:56;;;;;;;23.20;11.15;;;4.10;99.50;;;;;;5021138;28;20065;-80
2021/01/07 11:19:26;;;;;;;24.02;11.85;;;4.10;98.50;;;;;;5033440;28;20551;-80
2021/01/07 11:22:00;;;;;;;28.83;13.18;;;4.20;98.90;;;;;;5036875;28;20057;-79
2021/01/07 11:24:28;;;;;;;26.95;13.32;;;4.40;98.70;;;;;;5029297;28;20053;-82
2021/01/07 11:26:58;;;;;;;24.58;11.05;;;4.30;98.60;;;;;;5026550;28;20524;-83
2021/01/07 11:29:25;;;;;;;24.58;12.40;;;4.30;98.40;;;;;;5029285;28;20077;-82
2021/01/07 11:31:53;;;;;;;25.55;13.27;;;4.30;98.90;;;;;;5032562;28;20496;-80
2021/01/07 11:34:20;;;;;;;26.83;11.98;;;4.40;99.00;;;;;;5026031;28;20036;-80
2021/01/07 11:37:03;;;;;;;25.95;12.77;;;4.30;99.30;;;;;;5028366;28;20120;-85
2021/01/07 11:39:44;;;;;;;26.55;12.15;;;4.40;99.00;;;;;;5029597;28;20133;-82
2021/01/07 11:42:24;;;;;;;25.08;11.82;;;4.40;99.30;;;;;;5029696;28;20439;-82
2021/01/07 11:44:56;;;;;;;25.95;11.43;;;;;;;;;;5029826;28;20021;-82
2021/01/07 11:47:25;;;;;;;25.00;11.85;;;;;;;;;;5025759;28;20031;-81
2021/01/07 11:49:52;;;;;;;23.85;11.45;;;4.40;98.40;;;;;;5023337;28;20046;-82
2021/01/07 11:52:21;;;;;;;22.10;10.98;;;4.40;98.10;;;;;;5029323;28;20041;-84
2021/01/07 11:54:50;;;;;;;24.38;11.82;;;4.40;98.20;;;;;;5029171;28;20507;-82
2021/01/07 11:57:18;;;;;;;22.60;11.07;;;4.40;98.10;;;;;;5040758;28;20056;-81
2021/01/07 11:59:45;;;;;;;23.77;10.95;;;4.40;98.60;;;;;;5029931;28;20030;-86
2021/01/07 12:02:12;;;;;;;24.27;9.93;;;;;;;;;;5029232;28;20511;-81
2021/01/07 12:04:43;;;;;;;23.20;10.98;;;4.30;98.30;;;;;;5028378;28;20326;-82
2021/01/07 12:07:17;;;;;;;24.35;11.38;;;;;;;;;;5012044;28;20048;-84
2021/01/07 12:09:43;;;;;;;18.85;9.32;;;;;;;;;;5030035;28;20421;-82
2021/01/07 12:12:13;;;;;;;20.88;9.38;;;4.40;97.70;;;;;;5025158;28;20041;-81
2021/01/07 12:14:42;;;;;;;18.13;9.45;;;4.40;97.40;;;;;;5027553;28;20048;-81
2021/01/07 12:17:11;;;;;;;20.88;9.98;;;4.40;97.70;;;;;;5031304;28;20190;-84
2021/01/07 12:19:41;;;;;;;20.30;9.60;;;4.50;97.40;;;;;;5019187;28;20139;-79
2021/01/07 12:22:08;;;;;;;19.77;9.05;;;4.60;97.50;;;;;;5029011;28;20026;-81
2021/01/07 12:24:35;;;;;;;17.45;9.40;;;4.50;97.50;;;;;;5028768;28;20037;-80
2021/01/07 12:27:02;;;;;;;17.17;8.23;;;4.40;96.70;;;;;;5023210;28;20066;-80
2021/01/07 12:29:29;;;;;;;16.33;8.20;;;;;;;;;;5024916;28;20053;-80
2021/01/07 12:32:00;;;;;;;16.75;8.73;;;4.30;97.10;;;;;;5021017;28;20037;-81
2021/01/07 12:35:14;;;;;;;19.63;9.55;;;4.40;97.20;;;;;;5024872;28;20030;-79
2021/01/07 12:37:45;;;;;;;20.25;8.70;;;4.40;97.20;;;;;;5006297;28;20103;-79
2021/01/07 12:40:14;;;;;;;15.20;7.70;;;4.40;97.30;;;;;;5024725;28;20033;-83
2021/01/07 12:42:43;;;;;;;16.27;8.07;;;4.50;97.10;;;;;;5030863;28;20096;-81
2021/01/07 12:45:16;;;;;;;17.45;7.78;;;4.40;97.20;;;;;;5029799;28;20093;-81
2021/01/07 12:47:42;;;;;;;16.23;8.43;;;4.50;97.00;;;;;;5025190;28;20038;-82
2021/01/07 12:50:15;;;;;;;20.35;8.70;;;4.50;97.10;;;;;;5038233;28;20442;-80
2021/01/07 12:52:41;;;;;;;17.70;8.07;;;4.50;96.80;;;;;;5028309;28;20037;-81